Time;durP1;ratioP1;P1;durP2;ratioP2;P2;SDS_P1;SDS_P2;PMS_P1;PMS_P2;Temp;Humidity;BMP_temperature;BMP_pressure;BME280_temperature;BME280_humidity;BME280_pressure;Samples;Min_cycle;Max_cycle;Signal;HPM_P1;HPM_P2
2023/12/19 00:01:38;;;;;;;33.40;18.50;;;;;;;;;;6119150;23;20484;-71
2023/12/19 00:04:03;;;;;;;34.22;17.15;;;;;;;;;;6118701;23;20002;-71
2023/12/19 00:06:30;;;;;;;26.45;14.55;;;;;;;;;;6114563;23;20329;-71
2023/12/19 00:08:55;;;;;;;39.05;17.98;;;;;;;;;;6118859;23;20013;-70
2023/12/19 00:11:21;;;;;;;39.85;18.42;;;;;;;;;;6118589;23;20010;-71
2023/12/19 00:13:47;;;;;;;34.92;16.85;;;;;;;;;;6117826;23;20322;-71
2023/12/19 00:16:13;;;;;;;32.40;16.05;;;;;;;;;;6123885;23;20021;-70
2023/12/19 00:18:38;;;;;;;32.33;17.33;;;;;;;;;;6125071;23;20006;-70
2023/12/19 00:21:04;;;;;;;35.67;19.55;;;;;;;;;;6125694;23;20043;-71
2023/12/19 00:23:30;;;;;;;39.80;19.23;;;;;;;;;;6125065;23;20340;-72
2023/12/19 00:25:59;;;;;;;37.75;18.65;;;;;;;;;;6125042;23;20037;-72
2023/12/19 00:28:27;;;;;;;36.03;19.55;;;;;;;;;;6125302;23;20329;-72
2023/12/19 00:30:54;;;;;;;37.80;16.58;;;;;;;;;;6121454;23;20033;-72
2023/12/19 00:33:21;;;;;;;26.85;15.55;;;;;;;;;;6125259;23;20417;-72
2023/12/19 00:35:47;;;;;;;25.25;14.27;;;;;;;;;;6092712;23;20022;-72
2023/12/19 00:38:14;;;;;;;32.25;15.75;;;;;;;;;;6124889;23;20017;-72
2023/12/19 00:40:39;;;;;;;23.40;13.45;;;;;;;;;;6124785;23;20386;-71
2023/12/19 00:43:05;;;;;;;25.17;13.63;;;;;;;;;;6122943;23;20013;-72
2023/12/19 00:45:32;;;;;;;28.83;15.15;;;;;;;;;;6124301;23;20014;-72
2023/12/19 00:47:58;;;;;;;24.13;13.95;;;;;;;;;;6125290;23;20002;-72
2023/12/19 00:50:24;;;;;;;27.27;15.75;;;;;;;;;;6125492;23;20014;-72
2023/12/19 00:52:49;;;;;;;31.90;17.65;;;;;;;;;;6098859;23;20016;-72
2023/12/19 00:55:15;;;;;;;35.03;19.00;;;;;;;;;;6124261;23;20428;-72
2023/12/19 00:57:40;;;;;;;40.97;21.60;;;;;;;;;;6124319;23;20397;-73
2023/12/19 01:00:07;;;;;;;57.42;28.23;;;;;;;;;;6124636;23;20081;-72
2023/12/19 01:02:32;;;;;;;64.47;29.95;;;;;;;;;;6098349;23;20006;-72
2023/12/19 01:04:58;;;;;;;45.92;25.23;;;;;;;;;;6124213;23;20021;-71
2023/12/19 01:07:24;;;;;;;44.30;23.23;;;;;;;;;;6098610;23;20085;-71
2023/12/19 01:09:50;;;;;;;35.25;19.58;;;;;;;;;;6124403;23;20018;-71
2023/12/19 01:12:18;;;;;;;36.47;19.15;;;;;;;;;;6123041;23;20002;-72
2023/12/19 01:14:44;;;;;;;33.60;18.70;;;;;;;;;;6124568;23;20010;-72
2023/12/19 01:17:10;;;;;;;31.23;14.15;;;;;;;;;;6129168;23;19998;-72
2023/12/19 01:19:36;;;;;;;24.92;13.07;;;;;;;;;;6131311;23;20016;-72
2023/12/19 01:22:02;;;;;;;27.52;13.88;;;;;;;;;;6128055;23;20073;-73
2023/12/19 01:24:28;;;;;;;38.53;18.88;;;;;;;;;;6124954;23;20018;-72
2023/12/19 01:26:54;;;;;;;39.47;19.60;;;;;;;;;;6124980;23;20400;-71
2023/12/19 01:29:21;;;;;;;36.30;18.33;;;;;;;;;;6125054;23;20010;-71
2023/12/19 01:31:46;;;;;;;41.20;20.83;;;;;;;;;;6123795;23;20006;-71
2023/12/19 01:34:12;;;;;;;37.00;19.98;;;;;;;;;;6098888;23;20014;-72
2023/12/19 01:36:39;;;;;;;36.95;19.88;;;;;;;;;;6125180;23;20085;-71
2023/12/19 01:39:05;;;;;;;38.95;20.40;;;;;;;;;;6125218;23;20067;-72
2023/12/19 01:41:31;;;;;;;34.20;18.20;;;;;;;;;;6124622;23;20421;-71
2023/12/19 01:43:58;;;;;;;35.20;20.13;;;;;;;;;;6124869;23;20014;-71
2023/12/19 01:46:24;;;;;;;41.38;19.58;;;;;;;;;;6124532;23;20093;-71
2023/12/19 01:48:50;;;;;;;33.70;19.27;;;;;;;;;;6098770;23;20052;-72
2023/12/19 01:51:18;;;;;;;34.33;18.88;;;;;;;;;;6124588;23;20013;-71
2023/12/19 01:53:47;;;;;;;36.58;19.73;;;;;;;;;;6124528;23;20032;-72
2023/12/19 01:56:17;;;;;;;33.80;19.10;;;;;;;;;;6124195;23;20008;-71
2023/12/19 01:58:43;;;;;;;38.33;19.60;;;;;;;;;;6124930;23;20377;-71
2023/12/19 02:01:11;;;;;;;41.03;21.48;;;;;;;;;;6125133;23;20009;-72
2023/12/19 02:03:39;;;;;;;41.33;22.77;;;;;;;;;;6124930;23;20081;-72
2023/12/19 02:06:05;;;;;;;44.83;24.42;;;;;;;;;;6123750;23;20064;-72
2023/12/19 02:08:30;;;;;;;47.25;24.15;;;;;;;;;;6124759;23;20017;-71
2023/12/19 02:10:56;;;;;;;37.72;21.85;;;;;;;;;;6125235;23;20010;-71
2023/12/19 02:13:23;;;;;;;35.78;20.75;;;;;;;;;;6124761;23;20479;-70
2023/12/19 02:15:49;;;;;;;40.78;20.33;;;;;;;;;;6124225;23;20079;-72
2023/12/19 02:18:16;;;;;;;41.70;21.42;;;;;;;;;;6125082;23;20006;-71
2023/12/19 02:20:41;;;;;;;38.70;19.65;;;;;;;;;;6098721;23;20002;-71
2023/12/19 02:23:08;;;;;;;31.85;18.02;;;;;;;;;;6124700;23;20005;-72
2023/12/19 02:25:34;;;;;;;39.20;19.42;;;;;;;;;;6124626;23;20009;-71
2023/12/19 02:28:00;;;;;;;36.30;20.20;;;;;;;;;;6098834;23;20014;-71
2023/12/19 02:30:27;;;;;;;33.08;17.23;;;;;;;;;;6124673;23;20006;-72
2023/12/19 02:32:53;;;;;;;26.27;15.00;;;;;;;;;;6124457;23;20048;-71
2023/12/19 02:35:18;;;;;;;38.15;17.58;;;;;;;;;;6124548;23;20010;-72
2023/12/19 02:37:44;;;;;;;29.98;16.75;;;;;;;;;;6124610;23;20017;-71
2023/12/19 02:40:11;;;;;;;29.48;15.43;;;;;;;;;;6099163;23;20443;-72
2023/12/19 02:42:43;;;;;;;32.60;16.80;;;;;;;;;;6124492;23;20504;-72
2023/12/19 02:45:10;;;;;;;28.35;16.02;;;;;;;;;;6126041;23;20333;-71
2023/12/19 02:47:36;;;;;;;28.35;15.15;;;;;;;;;;6129264;23;20006;-71
2023/12/19 02:50:02;;;;;;;31.83;16.88;;;;;;;;;;6125276;23;20341;-71
2023/12/19 02:52:28;;;;;;;36.53;20.75;;;;;;;;;;6125297;23;20002;-71
2023/12/19 02:54:54;;;;;;;39.42;20.05;;;;;;;;;;6124678;23;20092;-72
2023/12/19 02:57:19;;;;;;;36.03;18.75;;;;;;;;;;6124269;23;19998;-72
2023/12/19 02:59:45;;;;;;;31.52;17.38;;;;;;;;;;6124467;23;20017;-71
2023/12/19 03:02:11;;;;;;;29.20;15.85;;;;;;;;;;6124497;23;20076;-71
2023/12/19 03:04:39;;;;;;;33.00;17.48;;;;;;;;;;6124579;23;20010;-72
2023/12/19 03:07:06;;;;;;;30.48;13.82;;;;;;;;;;6125095;23;20306;-72
2023/12/19 03:09:31;;;;;;;28.05;14.88;;;;;;;;;;6126531;23;20382;-72
2023/12/19 03:12:03;;;;;;;26.27;14.88;;;;;;;;;;6126164;23;20013;-72
2023/12/19 03:14:30;;;;;;;24.67;14.18;;;;;;;;;;6125844;23;20021;-72
2023/12/19 03:16:55;;;;;;;29.20;15.43;;;;;;;;;;6126164;23;20099;-71
2023/12/19 03:19:21;;;;;;;37.88;19.08;;;;;;;;;;6100738;23;20023;-71
2023/12/19 03:21:47;;;;;;;33.40;16.70;;;;;;;;;;6126113;23;20010;-71
2023/12/19 03:24:13;;;;;;;35.08;16.48;;;;;;;;;;6125984;23;20014;-72
2023/12/19 03:26:38;;;;;;;38.03;19.90;;;;;;;;;;6125920;23;20025;-72
2023/12/19 03:29:04;;;;;;;41.00;21.60;;;;;;;;;;6126225;23;20735;-71
2023/12/19 03:31:30;;;;;;;39.35;19.60;;;;;;;;;;6126030;23;20385;-72
2023/12/19 03:33:55;;;;;;;42.13;20.02;;;;;;;;;;6125875;23;20046;-71
2023/12/19 03:36:21;;;;;;;42.65;19.48;;;;;;;;;;6126293;23;20002;-72
2023/12/19 03:38:48;;;;;;;42.17;20.42;;;;;;;;;;6126354;23;20029;-71
2023/12/19 03:41:13;;;;;;;42.58;20.15;;;;;;;;;;6126171;23;20336;-72
2023/12/19 03:43:39;;;;;;;42.92;20.75;;;;;;;;;;6125579;23;20010;-72
2023/12/19 03:46:07;;;;;;;43.95;22.33;;;;;;;;;;6125768;23;20006;-72
2023/12/19 03:48:36;;;;;;;43.80;22.63;;;;;;;;;;6125729;23;20014;-71
2023/12/19 03:51:03;;;;;;;51.65;22.40;;;;;;;;;;6125744;23;20440;-71
2023/12/19 03:53:29;;;;;;;49.95;21.35;;;;;;;;;;6126181;23;20061;-72
2023/12/19 03:55:55;;;;;;;47.92;21.65;;;;;;;;;;6126314;23;20026;-72
2023/12/19 03:58:22;;;;;;;53.80;21.98;;;;;;;;;;6125816;23;20080;-71
2023/12/19 04:00:48;;;;;;;56.30;24.75;;;;;;;;;;6126077;23;20006;-71
2023/12/19 04:03:14;;;;;;;49.90;22.05;;;;;;;;;;6125251;23;20050;-73
2023/12/19 04:05:40;;;;;;;41.08;20.02;;;;;;;;;;6125527;23;20002;-72
2023/12/19 04:08:05;;;;;;;47.15;21.52;;;;;;;;;;6125501;23;20020;-72
2023/12/19 04:10:31;;;;;;;47.15;21.35;;;;;;;;;;6099697;23;20012;-72
2023/12/19 04:12:57;;;;;;;44.20;21.25;;;;;;;;;;6126408;23;20125;-72
2023/12/19 04:15:23;;;;;;;40.58;19.13;;;;;;;;;;6125516;23;20030;-73
2023/12/19 04:17:49;;;;;;;37.67;20.50;;;;;;;;;;6123925;23;20088;-71
2023/12/19 04:20:15;;;;;;;40.20;20.42;;;;;;;;;;6125206;23;20476;-72
2023/12/19 04:22:42;;;;;;;40.15;20.20;;;;;;;;;;6099508;23;20018;-72
2023/12/19 04:25:08;;;;;;;42.97;23.10;;;;;;;;;;6124507;23;20122;-72
2023/12/19 04:27:34;;;;;;;45.95;22.35;;;;;;;;;;6124713;23;20018;-71
2023/12/19 04:29:59;;;;;;;45.22;22.30;;;;;;;;;;6125334;23;20321;-71
2023/12/19 04:32:25;;;;;;;48.17;22.17;;;;;;;;;;6124856;23;20287;-73
2023/12/19 04:34:50;;;;;;;43.22;22.35;;;;;;;;;;6099084;23;20014;-72
2023/12/19 04:37:16;;;;;;;44.90;21.63;;;;;;;;;;6125368;23;20029;-72
2023/12/19 04:39:42;;;;;;;43.55;20.63;;;;;;;;;;6098494;23;20009;-72
2023/12/19 04:42:08;;;;;;;41.80;20.80;;;;;;;;;;6124860;23;20010;-71
2023/12/19 04:44:34;;;;;;;38.05;19.80;;;;;;;;;;6125921;23;20061;-72
2023/12/19 04:47:02;;;;;;;37.33;19.90;;;;;;;;;;6131574;23;20090;-72
2023/12/19 04:49:28;;;;;;;48.42;20.05;;;;;;;;;;6104180;23;20010;-72
2023/12/19 04:51:54;;;;;;;39.72;19.55;;;;;;;;;;6125137;23;20077;-71
2023/12/19 04:54:19;;;;;;;63.45;20.48;;;;;;;;;;6124336;23;20006;-72
2023/12/19 04:56:45;;;;;;;49.55;22.08;;;;;;;;;;6124784;23;20010;-72
2023/12/19 04:59:11;;;;;;;47.67;21.88;;;;;;;;;;6124537;23;20501;-72
2023/12/19 05:01:40;;;;;;;61.72;26.85;;;;;;;;;;6123868;23;20020;-72
2023/12/19 05:04:09;;;;;;;45.70;24.00;;;;;;;;;;6098128;23;20390;-72
2023/12/19 05:06:35;;;;;;;56.97;27.15;;;;;;;;;;6124461;23;20433;-72
2023/12/19 05:09:00;;;;;;;46.65;25.05;;;;;;;;;;6123590;23;20002;-72
2023/12/19 05:11:26;;;;;;;42.55;22.15;;;;;;;;;;6125052;23;20006;-72
2023/12/19 05:13:52;;;;;;;45.05;23.40;;;;;;;;;;6124464;23;20006;-72
2023/12/19 05:16:18;;;;;;;43.25;23.67;;;;;;;;;;6124371;23;20396;-72
2023/12/19 05:18:45;;;;;;;42.97;22.73;;;;;;;;;;6124908;23;19997;-72
2023/12/19 05:21:12;;;;;;;41.67;22.52;;;;;;;;;;6124209;23;20009;-71
2023/12/19 05:23:39;;;;;;;40.65;21.60;;;;;;;;;;6124070;23;20001;-72
2023/12/19 05:26:06;;;;;;;51.20;23.65;;;;;;;;;;6124450;23;20009;-71
2023/12/19 05:28:36;;;;;;;55.40;23.65;;;;;;;;;;6124430;23;20006;-72
2023/12/19 05:31:02;;;;;;;51.85;25.08;;;;;;;;;;6124538;23;20146;-72
2023/12/19 05:33:29;;;;;;;53.42;26.27;;;;;;;;;;6123625;23;20037;-72
2023/12/19 05:35:57;;;;;;;57.58;26.95;;;;;;;;;;6124224;23;20448;-72
2023/12/19 05:38:23;;;;;;;64.47;26.75;;;;;;;;;;6124287;23;20041;-72
2023/12/19 05:40:51;;;;;;;66.53;29.42;;;;;;;;;;6124189;23;20448;-72
2023/12/19 05:43:17;;;;;;;73.05;31.77;;;;;;;;;;6098007;23;20006;-72
2023/12/19 05:45:43;;;;;;;82.50;32.20;;;;;;;;;;6124312;23;20017;-72
2023/12/19 05:48:08;;;;;;;82.38;32.30;;;;;;;;;;6138122;23;20413;-72
2023/12/19 05:50:34;;;;;;;64.70;29.35;;;;;;;;;;6117970;23;20018;-71
2023/12/19 05:53:00;;;;;;;67.60;29.08;;;;;;;;;;6124947;23;20401;-71
2023/12/19 05:55:26;;;;;;;63.22;29.05;;;;;;;;;;6098033;23;20014;-72
2023/12/19 05:57:52;;;;;;;80.68;32.22;;;;;;;;;;6125104;23;20006;-72
2023/12/19 06:00:18;;;;;;;73.07;31.73;;;;;;;;;;6122506;23;20014;-72
2023/12/19 06:02:45;;;;;;;70.38;32.15;;;;;;;;;;6126820;23;20309;-72
2023/12/19 06:05:11;;;;;;;78.75;32.63;;;;;;;;;;6122563;23;20385;-73
2023/12/19 06:07:37;;;;;;;78.32;32.10;;;;;;;;;;6123046;23;20099;-72
2023/12/19 06:10:11;;;;;;;73.70;32.92;;;;;;;;;;6123456;23;20471;-72
2023/12/19 06:12:37;;;;;;;74.40;30.60;;;;;;;;;;6123695;23;20079;-74
2023/12/19 06:15:08;;;;;;;75.10;29.33;;;;;;;;;;6122700;23;20021;-71
2023/12/19 06:17:52;;;;;;;75.30;29.20;;;;;;;;;;6123558;23;20390;-73
2023/12/19 06:20:17;;;;;;;79.95;39.55;;;;;;;;;;6097855;23;20349;-72
2023/12/19 06:22:44;;;;;;;62.50;32.22;;;;;;;;;;6123075;23;20001;-72
2023/12/19 06:25:10;;;;;;;47.78;23.45;;;;;;;;;;6122534;23;20077;-72
2023/12/19 06:27:36;;;;;;;39.63;19.55;;;;;;;;;;6095997;23;20053;-72
2023/12/19 06:30:03;;;;;;;34.03;17.70;;;;;;;;;;6122427;23;20010;-73
2023/12/19 06:32:28;;;;;;;35.50;18.10;;;;;;;;;;6120783;23;20621;-74
2023/12/19 06:34:57;;;;;;;42.53;20.88;;;;;;;;;;6121933;23;20009;-74
2023/12/19 06:37:22;;;;;;;43.08;18.85;;;;;;;;;;6124626;23;20001;-74
2023/12/19 06:39:49;;;;;;;51.67;16.55;;;;;;;;;;6123785;23;20022;-74
2023/12/19 06:42:14;;;;;;;44.75;17.13;;;;;;;;;;6124449;23;20022;-76
2023/12/19 06:44:40;;;;;;;42.90;17.50;;;;;;;;;;6124565;23;20042;-74
2023/12/19 06:47:06;;;;;;;40.60;16.00;;;;;;;;;;6123460;23;20073;-75
2023/12/19 06:49:32;;;;;;;37.20;15.77;;;;;;;;;;6125521;23;20088;-73
2023/12/19 06:51:58;;;;;;;51.10;17.17;;;;;;;;;;6099519;23;20017;-74
2023/12/19 06:54:23;;;;;;;34.58;15.88;;;;;;;;;;6123422;23;20036;-75
2023/12/19 06:56:50;;;;;;;37.22;14.43;;;;;;;;;;6098938;23;20017;-73
2023/12/19 06:59:16;;;;;;;52.42;15.85;;;;;;;;;;6123422;23;20021;-73
2023/12/19 07:01:42;;;;;;;31.13;15.35;;;;;;;;;;6125137;23;20014;-73
2023/12/19 07:04:09;;;;;;;43.47;14.50;;;;;;;;;;6124628;23;20014;-74
2023/12/19 07:06:34;;;;;;;23.33;12.68;;;;;;;;;;6125665;23;20010;-73
2023/12/19 07:09:01;;;;;;;41.80;15.02;;;;;;;;;;6125129;23;20041;-73
2023/12/19 07:11:30;;;;;;;32.10;12.88;;;;;;;;;;6125355;23;20471;-74
2023/12/19 07:13:55;;;;;;;28.05;12.43;;;;;;;;;;6124436;23;20114;-74
2023/12/19 07:16:21;;;;;;;21.30;12.05;;;;;;;;;;6100013;23;20045;-73
2023/12/19 07:18:48;;;;;;;27.13;12.38;;;;;;;;;;6125335;23;20437;-74
2023/12/19 07:21:32;;;;;;;26.27;11.90;;;;;;;;;;6123216;23;20010;-76
2023/12/19 07:24:01;;;;;;;24.92;11.95;;;;;;;;;;6098927;23;20014;-75
2023/12/19 07:26:28;;;;;;;27.17;13.70;;;;;;;;;;6122992;23;20021;-74
2023/12/19 07:28:57;;;;;;;25.77;13.05;;;;;;;;;;6124968;23;20021;-77
2023/12/19 07:31:27;;;;;;;27.48;13.00;;;;;;;;;;6123788;23;20099;-72
2023/12/19 07:34:06;;;;;;;26.65;13.05;;;;;;;;;;6123622;23;20381;-74
2023/12/19 07:36:33;;;;;;;30.33;13.63;;;;;;;;;;6124901;23;20106;-74
2023/12/19 07:38:58;;;;;;;32.20;16.38;;;;;;;;;;6125219;23;20500;-74
2023/12/19 07:41:26;;;;;;;28.48;14.57;;;;;;;;;;6124346;23;20010;-75
2023/12/19 07:43:53;;;;;;;24.60;13.75;;;;;;;;;;6123768;23;20002;-73
2023/12/19 07:46:20;;;;;;;32.28;14.27;;;;;;;;;;6124727;23;20017;-75
2023/12/19 07:48:47;;;;;;;26.73;14.93;;;;;;;;;;6098401;23;20064;-75
2023/12/19 07:51:17;;;;;;;31.52;14.90;;;;;;;;;;6125035;23;20020;-75
2023/12/19 07:53:44;;;;;;;27.55;14.38;;;;;;;;;;6122833;23;20010;-72
2023/12/19 07:56:13;;;;;;;25.75;13.95;;;;;;;;;;6123975;23;20002;-74
2023/12/19 07:58:41;;;;;;;27.20;14.20;;;;;;;;;;6098103;23;20302;-74
2023/12/19 08:01:10;;;;;;;36.70;15.55;;;;;;;;;;6098311;23;20012;-72
2023/12/19 08:03:36;;;;;;;27.13;14.43;;;;;;;;;;6098701;23;20014;-74
2023/12/19 08:06:03;;;;;;;25.95;15.30;;;;;;;;;;6124452;23;20061;-74
2023/12/19 08:08:29;;;;;;;42.85;18.05;;;;;;;;;;6122420;23;20026;-74
2023/12/19 08:10:56;;;;;;;33.72;16.23;;;;;;;;;;6122641;23;20195;-75
2023/12/19 08:13:23;;;;;;;30.77;17.80;;;;;;;;;;6099223;23;20024;-74
2023/12/19 08:15:50;;;;;;;38.33;19.90;;;;;;;;;;6126050;23;20014;-74
2023/12/19 08:18:17;;;;;;;33.70;18.70;;;;;;;;;;6125596;23;20006;-74
2023/12/19 08:20:43;;;;;;;34.47;17.65;;;;;;;;;;6098753;23;20041;-73
2023/12/19 08:23:09;;;;;;;34.08;21.13;;;;;;;;;;6125144;23;20024;-72
2023/12/19 08:25:35;;;;;;;36.90;22.25;;;;;;;;;;6127065;23;20029;-74
2023/12/19 08:28:02;;;;;;;49.30;23.25;;;;;;;;;;6122691;23;20010;-73
2023/12/19 08:30:28;;;;;;;42.15;23.05;;;;;;;;;;6124559;23;20006;-73
2023/12/19 08:32:59;;;;;;;47.58;21.98;;;;;;;;;;6125124;23;20036;-74
2023/12/19 08:35:25;;;;;;;38.67;21.40;;;;;;;;;;6076929;23;20017;-74
2023/12/19 08:37:52;;;;;;;44.28;20.20;;;;;;;;;;6125339;23;19998;-73
2023/12/19 08:40:19;;;;;;;31.33;18.95;;;;;;;;;;6125952;23;20061;-73
2023/12/19 08:42:45;;;;;;;34.50;18.27;;;;;;;;;;6127525;23;20006;-73
2023/12/19 08:45:18;;;;;;;42.08;19.73;;;;;;;;;;6097831;23;20021;-73
2023/12/19 08:47:46;;;;;;;31.80;18.95;;;;;;;;;;6124524;23;20029;-73
2023/12/19 08:50:15;;;;;;;34.70;20.23;;;;;;;;;;6097781;23;20010;-71
2023/12/19 08:52:42;;;;;;;34.53;19.45;;;;;;;;;;6126291;23;20070;-73
2023/12/19 08:55:12;;;;;;;36.58;20.33;;;;;;;;;;6126843;23;20050;-74
2023/12/19 08:57:45;;;;;;;31.90;20.10;;;;;;;;;;6126240;23;20016;-73
2023/12/19 09:00:13;;;;;;;42.03;19.85;;;;;;;;;;6125944;23;20349;-73
2023/12/19 09:02:42;;;;;;;36.05;20.70;;;;;;;;;;6123383;23;20259;-74
2023/12/19 09:05:12;;;;;;;39.22;22.13;;;;;;;;;;6099111;23;20010;-73
2023/12/19 09:07:41;;;;;;;41.30;21.17;;;;;;;;;;6125206;23;20106;-75
2023/12/19 09:10:07;;;;;;;31.85;18.77;;;;;;;;;;6124951;23;20345;-74
2023/12/19 09:12:36;;;;;;;35.05;20.13;;;;;;;;;;6124941;23;20093;-73
2023/12/19 09:15:02;;;;;;;38.22;19.20;;;;;;;;;;6098535;23;20073;-73
2023/12/19 09:17:29;;;;;;;33.13;19.92;;;;;;;;;;6124973;23;20436;-75
2023/12/19 09:19:55;;;;;;;38.20;19.25;;;;;;;;;;6099546;23;20037;-74
2023/12/19 09:22:22;;;;;;;34.47;18.90;;;;;;;;;;6123205;23;20032;-72
2023/12/19 09:24:47;;;;;;;31.58;18.88;;;;;;;;;;6124108;23;20444;-73
2023/12/19 09:27:13;;;;;;;35.65;17.92;;;;;;;;;;6124649;23;20016;-72
2023/12/19 09:29:40;;;;;;;35.92;18.38;;;;;;;;;;6124487;23;20020;-72
2023/12/19 09:32:07;;;;;;;50.20;19.10;;;;;;;;;;6126872;23;20065;-73
2023/12/19 09:34:40;;;;;;;45.20;18.73;;;;;;;;;;6125428;23;20077;-73
2023/12/19 09:37:06;;;;;;;35.20;18.63;;;;;;;;;;6123215;23;20398;-73
2023/12/19 09:39:32;;;;;;;32.63;17.23;;;;;;;;;;6124662;23;20057;-73
2023/12/19 09:41:58;;;;;;;31.70;17.75;;;;;;;;;;6124844;23;20006;-73
2023/12/19 09:44:26;;;;;;;47.67;18.83;;;;;;;;;;6122937;23;20006;-72
2023/12/19 09:46:52;;;;;;;27.00;14.98;;;;;;;;;;6124643;23;20021;-72
2023/12/19 09:49:23;;;;;;;29.55;14.48;;;;;;;;;;6124745;23;20149;-73
2023/12/19 09:51:53;;;;;;;26.95;13.90;;;;;;;;;;6124847;23;20013;-72
2023/12/19 09:54:23;;;;;;;27.55;14.23;;;;;;;;;;6098497;23;20017;-73
2023/12/19 09:56:52;;;;;;;25.73;13.48;;;;;;;;;;6098600;23;20421;-72
2023/12/19 09:59:19;;;;;;;25.75;13.32;;;;;;;;;;6124236;23;20037;-72
2023/12/19 10:01:45;;;;;;;25.65;14.18;;;;;;;;;;6124846;23;20073;-72
2023/12/19 10:04:14;;;;;;;22.75;13.38;;;;;;;;;;6122995;23;20017;-73
2023/12/19 10:07:02;;;;;;;24.95;13.32;;;;;;;;;;6099201;23;20026;-73
2023/12/19 10:09:28;;;;;;;26.38;12.82;;;;;;;;;;6097945;23;20085;-73
2023/12/19 10:12:15;;;;;;;26.83;13.70;;;;;;;;;;6124294;23;20314;-72
2023/12/19 10:14:41;;;;;;;26.83;13.93;;;;;;;;;;6124676;23;20021;-72
2023/12/19 10:17:14;;;;;;;24.08;12.48;;;;;;;;;;6125287;23;20076;-73
2023/12/19 10:19:40;;;;;;;26.63;14.45;;;;;;;;;;6125090;23;20041;-73
2023/12/19 10:22:06;;;;;;;29.58;15.00;;;;;;;;;;6126784;23;20010;-73
2023/12/19 10:24:33;;;;;;;23.40;13.93;;;;;;;;;;6127745;23;20341;-72
2023/12/19 10:27:00;;;;;;;26.42;14.10;;;;;;;;;;6100173;23;20006;-72
2023/12/19 10:29:28;;;;;;;22.27;14.48;;;;;;;;;;6126508;23;20096;-72
2023/12/19 10:31:54;;;;;;;28.33;14.90;;;;;;;;;;6124922;23;20014;-72
2023/12/19 10:34:22;;;;;;;25.65;15.43;;;;;;;;;;6126506;23;20368;-72
2023/12/19 10:36:48;;;;;;;30.45;16.73;;;;;;;;;;6126323;23;20001;-72
2023/12/19 10:39:18;;;;;;;26.15;16.60;;;;;;;;;;6124628;23;20012;-73
2023/12/19 10:41:44;;;;;;;26.05;15.05;;;;;;;;;;6126826;23;20013;-72
2023/12/19 10:44:12;;;;;;;30.88;16.17;;;;;;;;;;6126363;23;20002;-72
2023/12/19 10:46:41;;;;;;;28.75;15.90;;;;;;;;;;6126489;23;20024;-72
2023/12/19 10:49:07;;;;;;;24.33;16.13;;;;;;;;;;6126526;23;20002;-72
2023/12/19 10:51:37;;;;;;;28.20;15.20;;;;;;;;;;6124578;23;20018;-73
2023/12/19 10:54:12;;;;;;;25.52;15.75;;;;;;;;;;6124895;23;20141;-73
2023/12/19 10:56:54;;;;;;;27.02;16.23;;;;;;;;;;6125947;23;20014;-72
2023/12/19 10:59:29;;;;;;;26.23;16.20;;;;;;;;;;6125947;23;20013;-72
2023/12/19 11:02:02;;;;;;;23.63;14.93;;;;;;;;;;6126515;23;20021;-72
2023/12/19 11:04:32;;;;;;;26.38;16.27;;;;;;;;;;6100307;23;20009;-72
2023/12/19 11:07:04;;;;;;;29.45;16.77;;;;;;;;;;6126109;23;20025;-72
2023/12/19 11:09:34;;;;;;;27.88;16.33;;;;;;;;;;6124267;23;20085;-73
2023/12/19 11:12:00;;;;;;;27.48;16.20;;;;;;;;;;6125666;23;20084;-73
2023/12/19 11:14:26;;;;;;;25.92;15.07;;;;;;;;;;6125172;23;20041;-73
2023/12/19 11:16:58;;;;;;;23.67;14.77;;;;;;;;;;6126017;23;20448;-73
2023/12/19 11:19:37;;;;;;;26.08;13.57;;;;;;;;;;6126338;23;20026;-73
2023/12/19 11:22:14;;;;;;;20.88;12.05;;;;;;;;;;6099813;23;20018;-74
2023/12/19 11:25:09;;;;;;;20.10;12.75;;;;;;;;;;6126186;23;20469;-72
2023/12/19 11:27:43;;;;;;;25.85;12.93;;;;;;;;;;6125484;23;20017;-72
2023/12/19 11:30:36;;;;;;;30.83;12.55;;;;;;;;;;6099857;23;20022;-72
2023/12/19 11:33:15;;;;;;;34.08;13.10;;;;;;;;;;6125688;23;20069;-72
2023/12/19 11:35:41;;;;;;;27.52;11.85;;;;;;;;;;6098313;23;20025;-71
2023/12/19 11:38:13;;;;;;;20.85;12.43;;;;;;;;;;6099557;23;20002;-73
2023/12/19 11:40:45;;;;;;;28.38;12.13;;;;;;;;;;6125345;23;20048;-72
2023/12/19 11:43:31;;;;;;;22.45;12.85;;;;;;;;;;6125585;23;20445;-71
2023/12/19 11:46:00;;;;;;;19.65;11.13;;;;;;;;;;6125074;23;20010;-72
2023/12/19 11:48:34;;;;;;;20.10;11.65;;;;;;;;;;6123898;23;20010;-73
2023/12/19 11:51:00;;;;;;;15.90;9.48;;;;;;;;;;6126242;23;20020;-73
2023/12/19 11:53:26;;;;;;;23.08;11.50;;;;;;;;;;6125881;23;20002;-73
2023/12/19 11:56:11;;;;;;;24.02;11.10;;;;;;;;;;6076735;23;20021;-75
2023/12/19 11:58:47;;;;;;;20.83;10.95;;;;;;;;;;6124783;23;20036;-74
2023/12/19 12:01:14;;;;;;;22.73;11.05;;;;;;;;;;6126475;23;20016;-73
2023/12/19 12:03:39;;;;;;;24.45;12.25;;;;;;;;;;6125882;23;20006;-73
2023/12/19 12:06:08;;;;;;;22.58;11.50;;;;;;;;;;6100817;23;20089;-72
2023/12/19 12:08:34;;;;;;;21.38;10.82;;;;;;;;;;6122248;23;20033;-73
2023/12/19 12:11:05;;;;;;;22.33;11.30;;;;;;;;;;6104585;23;20014;-73
2023/12/19 12:13:33;;;;;;;18.65;10.88;;;;;;;;;;6127602;23;20042;-74
2023/12/19 12:16:00;;;;;;;16.77;10.52;;;;;;;;;;6127638;23;20423;-74
2023/12/19 12:18:30;;;;;;;18.95;12.15;;;;;;;;;;6125702;23;20018;-73
2023/12/19 12:21:08;;;;;;;22.38;12.48;;;;;;;;;;6126497;23;20513;-74
2023/12/19 12:23:35;;;;;;;23.67;12.57;;;;;;;;;;6099516;23;20018;-74
2023/12/19 12:26:01;;;;;;;25.33;12.52;;;;;;;;;;6125415;23;20133;-74
2023/12/19 12:28:28;;;;;;;22.50;11.63;;;;;;;;;;6124634;23;20029;-72
2023/12/19 12:30:59;;;;;;;20.17;12.40;;;;;;;;;;6099459;23;20009;-75
2023/12/19 12:33:27;;;;;;;18.67;11.35;;;;;;;;;;6125245;23;20010;-74
2023/12/19 12:35:56;;;;;;;25.20;12.82;;;;;;;;;;6125881;23;20032;-72
2023/12/19 12:38:23;;;;;;;30.35;12.48;;;;;;;;;;6098955;23;20021;-73
2023/12/19 12:41:01;;;;;;;26.85;12.90;;;;;;;;;;6125693;23;20002;-73
2023/12/19 12:43:40;;;;;;;21.90;13.20;;;;;;;;;;6124577;23;20014;-73
2023/12/19 12:46:09;;;;;;;21.27;12.77;;;;;;;;;;6126477;23;20390;-74
2023/12/19 12:48:38;;;;;;;25.02;14.07;;;;;;;;;;6124145;23;20078;-73
2023/12/19 12:51:07;;;;;;;17.30;11.43;;;;;;;;;;6125606;23;20014;-74
2023/12/19 12:53:34;;;;;;;17.58;11.00;;;;;;;;;;6124309;23;20014;-74
2023/12/19 12:56:04;;;;;;;21.02;11.85;;;;;;;;;;6125035;23;20002;-72
2023/12/19 12:58:32;;;;;;;18.85;12.13;;;;;;;;;;6124110;23;20487;-73
2023/12/19 13:00:58;;;;;;;16.52;10.85;;;;;;;;;;6098295;23;20006;-73
2023/12/19 13:03:24;;;;;;;22.40;11.93;;;;;;;;;;6122481;23;20445;-73
2023/12/19 13:05:49;;;;;;;20.98;11.38;;;;;;;;;;6124407;23;20005;-73
2023/12/19 13:08:15;;;;;;;19.50;10.65;;;;;;;;;;6124166;23;20131;-73
2023/12/19 13:10:41;;;;;;;21.58;13.00;;;;;;;;;;6098341;23;20369;-74
2023/12/19 13:13:08;;;;;;;19.55;12.18;;;;;;;;;;6098734;23;20020;-74
2023/12/19 13:15:35;;;;;;;21.90;13.02;;;;;;;;;;6124534;23;20064;-74
2023/12/19 13:18:01;;;;;;;22.60;12.75;;;;;;;;;;6098616;23;20010;-73
2023/12/19 13:20:27;;;;;;;28.85;16.00;;;;;;;;;;6123156;23;20336;-73
2023/12/19 13:22:52;;;;;;;20.45;11.75;;;;;;;;;;6124268;23;20014;-73
2023/12/19 13:25:18;;;;;;;19.85;11.50;;;;;;;;;;6122873;23;20032;-73
2023/12/19 13:27:44;;;;;;;19.02;12.05;;;;;;;;;;6123795;23;20096;-73
2023/12/19 13:30:12;;;;;;;23.60;12.00;;;;;;;;;;6122683;23;20006;-73
2023/12/19 13:32:39;;;;;;;22.27;11.68;;;;;;;;;;6124504;23;20033;-73
2023/12/19 13:35:06;;;;;;;19.23;11.70;;;;;;;;;;6123057;23;20013;-73
2023/12/19 13:37:32;;;;;;;19.95;12.13;;;;;;;;;;6124527;23;20719;-73
2023/12/19 13:39:59;;;;;;;17.88;10.38;;;;;;;;;;6124524;23;20061;-73
2023/12/19 13:42:26;;;;;;;22.75;11.57;;;;;;;;;;6098670;23;20386;-74
2023/12/19 13:44:52;;;;;;;20.90;11.05;;;;;;;;;;6124449;23;20005;-72
2023/12/19 13:47:18;;;;;;;21.48;10.90;;;;;;;;;;6124706;23;20513;-74
2023/12/19 13:49:44;;;;;;;22.20;11.90;;;;;;;;;;6124230;23;20062;-73
2023/12/19 13:52:10;;;;;;;21.83;12.20;;;;;;;;;;6123640;23;20022;-73
2023/12/19 13:54:36;;;;;;;18.90;11.75;;;;;;;;;;6125275;23;20033;-73
2023/12/19 13:57:02;;;;;;;19.70;12.80;;;;;;;;;;6100107;23;20104;-74
2023/12/19 13:59:29;;;;;;;34.63;15.57;;;;;;;;;;6121984;23;19994;-75
2023/12/19 14:01:54;;;;;;;30.50;15.30;;;;;;;;;;6097132;23;20013;-74
2023/12/19 14:04:20;;;;;;;36.42;15.20;;;;;;;;;;6122929;23;20380;-74
2023/12/19 14:06:47;;;;;;;29.95;16.83;;;;;;;;;;6124052;23;20382;-75
2023/12/19 14:09:19;;;;;;;31.33;17.73;;;;;;;;;;6123308;23;20038;-75
2023/12/19 14:11:46;;;;;;;41.85;20.02;;;;;;;;;;6123610;23;20508;-74
2023/12/19 14:14:11;;;;;;;32.17;20.15;;;;;;;;;;6121392;23;20010;-74
2023/12/19 14:16:37;;;;;;;36.72;20.85;;;;;;;;;;6123690;23;20020;-74
2023/12/19 14:19:03;;;;;;;37.42;21.63;;;;;;;;;;6123289;23;20002;-73